Terminal Aerodrome Forecast
Issued by NWS

Home | Current Version | Previous Version | Text Only | Print | Product List | Glossary On
Versions: 1 2 3 4 5 6 7 8 9 10 11 12 13 14 15 16 17 18 19 20 21 22 23 24 25 26 27 28 29 30 31 32 33 34 35
771
FTUS45 KLKN 211741
TAFEKO
TAF
KEKO 211741Z 2118/2218 VRB04KT P6SM BKN050 BKN090
     FM212100 24006KT P6SM BKN040 BKN200
     FM220600 14004KT P6SM VCSH BKN050 BKN150
     FM221500 15007KT 5SM -SHSN OVC025=

USA.gov is the U.S. government's official web portal to all federal, state and local government web resources and services.